createdAt,value
2022-09-25T00:00:04.337Z,24.73
2022-09-25T00:02:30.786Z,24.73
2022-09-25T00:04:57.069Z,24.73
2022-09-25T00:07:23.401Z,24.72
2022-09-25T00:09:49.751Z,24.71
2022-09-25T00:12:16.101Z,24.70
2022-09-25T00:14:42.449Z,24.70
2022-09-25T00:17:08.800Z,24.70
2022-09-25T00:19:35.125Z,24.69
2022-09-25T00:22:01.467Z,24.69
2022-09-25T00:24:27.805Z,24.68
2022-09-25T00:26:54.138Z,24.68
2022-09-25T00:29:20.578Z,24.61
2022-09-25T00:31:46.848Z,24.68
2022-09-25T00:34:13.311Z,24.68
2022-09-25T00:36:39.576Z,24.66
2022-09-25T00:39:05.924Z,24.65
2022-09-25T00:41:32.299Z,24.49
2022-09-25T00:43:58.639Z,24.49
2022-09-25T00:46:26.242Z,24.65
2022-09-25T00:48:51.325Z,24.64
2022-09-25T00:51:17.662Z,24.64
2022-09-25T00:53:44.008Z,24.62
2022-09-25T00:56:10.350Z,24.62
2022-09-25T00:58:36.702Z,24.62
2022-09-25T01:01:03.105Z,24.62
2022-09-25T01:03:29.389Z,24.62
2022-09-25T01:05:55.745Z,24.61
2022-09-25T01:08:22.097Z,24.61
2022-09-25T01:10:48.440Z,24.59
2022-09-25T01:13:14.798Z,24.59
2022-09-25T01:15:41.140Z,24.59
2022-09-25T01:18:07.517Z,24.57
2022-09-25T01:20:33.859Z,24.58
2022-09-25T01:23:00.226Z,24.57
2022-09-25T01:25:26.559Z,24.56
2022-09-25T01:27:52.904Z,24.55
2022-09-25T01:30:19.241Z,24.55
2022-09-25T01:32:45.586Z,24.54
2022-09-25T01:35:11.931Z,24.54
2022-09-25T01:37:38.312Z,24.53
2022-09-25T01:40:04.698Z,24.53
2022-09-25T01:42:31.070Z,24.54
2022-09-25T01:44:57.408Z,24.53
2022-09-25T01:47:23.748Z,24.53
2022-09-25T01:49:50.087Z,24.53
2022-09-25T01:52:16.431Z,24.52
2022-09-25T01:54:42.768Z,24.49
2022-09-25T01:57:09.111Z,24.52
2022-09-25T01:59:35.450Z,24.51
2022-09-25T02:02:01.851Z,24.49
2022-09-25T02:04:28.143Z,24.48
2022-09-25T02:06:54.488Z,24.48
2022-09-25T02:09:20.837Z,24.50
2022-09-25T02:11:47.178Z,24.49
2022-09-25T02:14:13.565Z,24.49
2022-09-25T02:16:39.906Z,24.46
2022-09-25T02:19:06.210Z,24.46
2022-09-25T02:21:32.565Z,24.46
2022-09-25T02:23:58.908Z,24.46
2022-09-25T02:26:25.296Z,24.45
2022-09-25T02:28:51.628Z,24.45
2022-09-25T02:31:18.020Z,24.45
2022-09-25T02:33:44.303Z,24.43
2022-09-25T02:36:10.658Z,24.44
2022-09-25T02:38:36.997Z,24.42
2022-09-25T02:41:03.342Z,24.42
2022-09-25T02:43:29.682Z,24.42
2022-09-25T02:45:56.099Z,24.40
2022-09-25T02:48:22.369Z,24.43
2022-09-25T02:50:48.754Z,24.40
2022-09-25T02:53:15.092Z,24.40
2022-09-25T02:55:41.470Z,24.40
2022-09-25T02:58:07.813Z,24.40
2022-09-25T03:00:34.171Z,24.40
2022-09-25T03:03:01.723Z,24.38
2022-09-25T03:05:26.852Z,24.39
2022-09-25T03:07:53.184Z,24.38
2022-09-25T03:10:19.537Z,24.38
2022-09-25T03:12:45.876Z,24.37
2022-09-25T03:15:12.220Z,24.38
2022-09-25T03:17:38.566Z,24.34
2022-09-25T03:20:04.965Z,24.36
2022-09-25T03:22:33.237Z,24.35
2022-09-25T03:24:57.646Z,24.34
2022-09-25T03:27:23.988Z,24.35
2022-09-25T03:29:50.340Z,24.33
2022-09-25T03:32:16.688Z,24.34
2022-09-25T03:34:43.035Z,24.33
2022-09-25T03:37:09.410Z,24.32
2022-09-25T03:39:35.749Z,24.34
2022-09-25T03:42:02.094Z,24.34
2022-09-25T03:44:28.487Z,24.31
2022-09-25T03:46:54.824Z,24.30
2022-09-25T03:49:21.176Z,24.30
2022-09-25T03:51:47.516Z,24.29
2022-09-25T03:54:13.962Z,24.22
2022-09-25T03:56:40.234Z,24.22
2022-09-25T03:59:07.540Z,24.28
2022-09-25T04:01:33.042Z,24.28
2022-09-25T04:03:59.305Z,24.28
2022-09-25T04:06:25.652Z,24.28
2022-09-25T04:08:51.994Z,24.27
2022-09-25T04:11:18.326Z,24.28
2022-09-25T04:13:44.721Z,24.28
2022-09-25T04:16:11.056Z,24.27
2022-09-25T04:18:37.391Z,24.27
2022-09-25T04:21:03.727Z,24.26
2022-09-25T04:23:30.109Z,24.26
2022-09-25T04:25:57.690Z,24.25
2022-09-25T04:28:22.802Z,24.24
2022-09-25T04:30:49.149Z,24.24
2022-09-25T04:33:15.492Z,24.23
2022-09-25T04:35:41.835Z,24.24
2022-09-25T04:38:08.182Z,24.24
2022-09-25T04:40:34.563Z,24.23
2022-09-25T04:43:02.122Z,24.23
2022-09-25T04:45:27.212Z,24.23
2022-09-25T04:47:54.579Z,24.22
2022-09-25T04:50:20.916Z,24.22
2022-09-25T04:52:47.263Z,24.24
2022-09-25T04:55:13.620Z,24.23
2022-09-25T04:57:57.707Z,24.23
2022-09-25T05:00:06.317Z,24.22
2022-09-25T05:02:32.845Z,24.22
2022-09-25T05:04:59.010Z,24.22
2022-09-25T05:07:25.347Z,24.23
2022-09-25T05:09:51.695Z,24.24
2022-09-25T05:12:18.032Z,24.26
2022-09-25T05:14:44.382Z,24.25
2022-09-25T05:17:10.725Z,24.25
2022-09-25T05:19:37.108Z,24.25
2022-09-25T05:22:03.442Z,24.24
2022-09-25T05:24:29.812Z,24.27
2022-09-25T05:26:56.152Z,24.26
2022-09-25T05:29:22.533Z,24.26
2022-09-25T05:31:48.906Z,24.27
2022-09-25T05:34:15.220Z,24.27
2022-09-25T05:36:41.558Z,24.28
2022-09-25T05:39:12.174Z,24.27
2022-09-25T05:41:34.240Z,24.28
2022-09-25T05:44:00.589Z,24.28
2022-09-25T05:46:27.013Z,24.29
2022-09-25T05:48:53.285Z,24.31
2022-09-25T05:51:19.826Z,24.32
2022-09-25T05:53:46.170Z,24.33
2022-09-25T05:56:12.512Z,24.32
2022-09-25T05:58:38.878Z,24.34
2022-09-25T06:01:05.207Z,24.36
2022-09-25T06:03:31.566Z,24.35
2022-09-25T06:05:57.893Z,24.36
2022-09-25T06:08:24.246Z,24.33
2022-09-25T06:10:50.591Z,24.36
2022-09-25T06:13:16.940Z,24.37
2022-09-25T06:15:43.317Z,24.37
2022-09-25T06:18:09.638Z,24.38
2022-09-25T06:20:35.969Z,24.39
2022-09-25T06:23:03.590Z,24.40
2022-09-25T06:25:28.716Z,24.39
2022-09-25T06:27:55.082Z,24.41
2022-09-25T06:30:21.419Z,24.43
2022-09-25T06:32:48.863Z,24.43
2022-09-25T06:35:15.208Z,24.44
2022-09-25T06:37:41.559Z,24.44
2022-09-25T06:40:08.056Z,24.45
2022-09-25T06:42:34.248Z,24.44
2022-09-25T06:45:00.586Z,24.47
2022-09-25T06:47:27.126Z,24.46
2022-09-25T06:49:53.295Z,24.49
2022-09-25T06:52:19.628Z,24.49
2022-09-25T06:54:45.980Z,24.51
2022-09-25T06:57:12.354Z,24.51
2022-09-25T06:59:38.692Z,24.51
2022-09-25T07:02:05.135Z,24.54
2022-09-25T07:04:31.383Z,24.54
2022-09-25T07:06:57.726Z,24.55
2022-09-25T07:09:24.069Z,24.57
2022-09-25T07:11:50.414Z,24.55
2022-09-25T07:14:16.752Z,24.56
2022-09-25T07:16:43.098Z,24.58
2022-09-25T07:19:09.454Z,24.58
2022-09-25T07:21:35.802Z,24.59
2022-09-25T07:24:02.135Z,24.60
2022-09-25T07:26:28.498Z,24.59
2022-09-25T07:28:54.821Z,24.60
2022-09-25T07:31:21.227Z,24.59
2022-09-25T07:33:47.549Z,24.59
2022-09-25T07:36:13.897Z,24.60
2022-09-25T07:38:40.234Z,24.60
2022-09-25T07:41:06.609Z,24.60
2022-09-25T07:43:32.960Z,24.60
2022-09-25T07:45:59.315Z,24.62
2022-09-25T07:48:25.671Z,24.62
2022-09-25T07:50:52.020Z,24.63
2022-09-25T07:53:18.368Z,24.63
2022-09-25T07:55:44.731Z,24.64
2022-09-25T07:58:11.072Z,24.65
2022-09-25T08:00:37.429Z,24.65
2022-09-25T08:03:03.790Z,24.65
2022-09-25T08:05:30.103Z,24.67
2022-09-25T08:07:56.445Z,24.66
2022-09-25T08:10:24.982Z,24.66
2022-09-25T08:12:51.321Z,24.67
2022-09-25T08:15:17.667Z,24.68
2022-09-25T08:17:44.017Z,24.67
2022-09-25T08:20:10.369Z,24.69
2022-09-25T08:22:36.711Z,24.70
2022-09-25T08:25:03.058Z,24.71
2022-09-25T08:27:29.393Z,24.72
2022-09-25T08:29:55.733Z,24.72
2022-09-25T08:32:22.070Z,24.73
2022-09-25T08:34:48.774Z,24.74
2022-09-25T08:37:14.771Z,24.76
2022-09-25T08:39:41.115Z,24.74
2022-09-25T08:42:07.456Z,24.76
2022-09-25T08:44:33.807Z,24.75
2022-09-25T08:47:00.151Z,24.75
2022-09-25T08:49:26.494Z,24.75
2022-09-25T08:51:52.891Z,24.78
2022-09-25T08:54:19.244Z,24.72
2022-09-25T08:56:45.577Z,24.72
2022-09-25T08:59:11.915Z,24.82
2022-09-25T09:01:38.291Z,24.78
2022-09-25T09:04:04.600Z,24.82
2022-09-25T09:06:33.345Z,24.84
2022-09-25T09:08:59.692Z,24.81
2022-09-25T09:11:26.029Z,24.77
2022-09-25T09:13:52.409Z,24.79
2022-09-25T09:16:18.728Z,24.79
2022-09-25T09:18:45.055Z,24.81
2022-09-25T09:21:11.401Z,24.77
2022-09-25T09:23:37.786Z,24.77
2022-09-25T09:26:04.123Z,24.79
2022-09-25T09:28:30.462Z,24.81
2022-09-25T09:30:56.865Z,24.77
2022-09-25T09:33:23.150Z,24.76
2022-09-25T09:35:49.505Z,24.77
2022-09-25T09:38:15.861Z,24.81
2022-09-25T09:40:42.212Z,24.83
2022-09-25T09:43:08.520Z,24.76
2022-09-25T09:45:34.857Z,24.77
2022-09-25T09:48:01.197Z,24.77
2022-09-25T09:50:27.533Z,24.79
2022-09-25T09:52:53.874Z,24.79
2022-09-25T09:55:20.215Z,24.81
2022-09-25T09:57:46.556Z,24.79
2022-09-25T10:00:12.891Z,24.80
2022-09-25T10:02:39.379Z,24.78
2022-09-25T10:05:05.608Z,24.81
2022-09-25T10:07:31.961Z,24.81
2022-09-25T10:09:58.303Z,24.83
2022-09-25T10:12:24.703Z,24.83
2022-09-25T10:14:52.168Z,24.83
2022-09-25T10:17:17.454Z,24.82
2022-09-25T10:19:43.791Z,24.82
2022-09-25T10:22:10.171Z,24.85
2022-09-25T10:24:36.519Z,24.85
2022-09-25T10:27:02.868Z,24.87
2022-09-25T10:29:29.215Z,24.86
2022-09-25T10:31:55.558Z,24.87
2022-09-25T10:34:21.908Z,24.87
2022-09-25T10:36:48.281Z,24.89
2022-09-25T10:39:39.601Z,24.91
2022-09-25T10:41:40.970Z,24.88
2022-09-25T10:44:07.328Z,24.93
2022-09-25T10:46:33.721Z,24.95
2022-09-25T10:48:59.988Z,25.00
2022-09-25T10:51:26.333Z,25.02
2022-09-25T10:53:52.671Z,25.02
2022-09-25T10:56:19.016Z,25.10
2022-09-25T10:58:45.362Z,25.07
2022-09-25T11:01:11.772Z,25.10
2022-09-25T11:03:38.101Z,25.15
2022-09-25T11:06:04.451Z,25.17
2022-09-25T11:08:30.791Z,25.19
2022-09-25T11:10:57.192Z,25.23
2022-09-25T11:13:23.523Z,25.23
2022-09-25T11:15:49.869Z,25.28
2022-09-25T11:18:16.207Z,25.30
2022-09-25T11:20:42.559Z,25.33
2022-09-25T11:23:08.902Z,25.37
2022-09-25T11:25:35.261Z,25.41
2022-09-25T11:28:01.600Z,25.45
2022-09-25T11:30:27.946Z,25.45
2022-09-25T11:32:54.337Z,25.45
2022-09-25T11:35:20.709Z,25.55
2022-09-25T11:37:47.026Z,25.58
2022-09-25T11:40:13.474Z,25.59
2022-09-25T11:42:39.725Z,25.59
2022-09-25T11:45:06.068Z,25.67
2022-09-25T11:47:32.408Z,25.75
2022-09-25T11:49:58.767Z,25.75
2022-09-25T11:52:25.108Z,25.79
2022-09-25T11:54:51.448Z,25.81
2022-09-25T11:57:17.788Z,25.85
2022-09-25T11:59:44.160Z,25.88
2022-09-25T12:02:10.546Z,25.88
2022-09-25T12:04:41.265Z,25.84
2022-09-25T12:07:03.179Z,25.84
2022-09-25T12:09:29.516Z,25.87
2022-09-25T12:11:55.853Z,25.96
2022-09-25T12:14:22.194Z,26.02
2022-09-25T12:16:48.668Z,26.06
2022-09-25T12:19:14.931Z,26.19
2022-09-25T12:21:41.268Z,26.19
2022-09-25T12:24:07.674Z,26.20
2022-09-25T12:26:34.000Z,26.43
2022-09-25T12:29:00.338Z,26.57
2022-09-25T12:31:26.720Z,26.69
2022-09-25T12:33:53.025Z,26.87
2022-09-25T12:36:19.357Z,27.09
2022-09-25T12:38:45.692Z,27.40
2022-09-25T12:41:12.039Z,27.74
2022-09-25T12:43:38.376Z,28.08
2022-09-25T12:46:04.768Z,28.27
2022-09-25T12:48:31.053Z,28.49
2022-09-25T12:51:01.463Z,28.64
2022-09-25T12:53:23.729Z,28.75
2022-09-25T12:55:50.060Z,28.58
2022-09-25T12:58:16.401Z,27.75
2022-09-25T13:00:42.736Z,27.52
2022-09-25T13:03:09.075Z,27.48
2022-09-25T13:05:35.423Z,27.48
2022-09-25T13:08:01.762Z,27.43
2022-09-25T13:10:28.098Z,27.50
2022-09-25T13:12:54.444Z,28.13
2022-09-25T13:15:20.775Z,28.54
2022-09-25T13:17:47.125Z,28.66
2022-09-25T13:20:13.466Z,28.80
2022-09-25T13:22:39.810Z,28.86
2022-09-25T13:25:06.182Z,28.94
2022-09-25T13:27:37.355Z,28.94
2022-09-25T13:29:58.881Z,28.92
2022-09-25T13:32:25.230Z,28.92
2022-09-25T13:34:51.575Z,28.80
2022-09-25T13:37:17.925Z,28.82
2022-09-25T13:39:44.268Z,28.81
2022-09-25T13:42:10.621Z,28.77
2022-09-25T13:44:37.024Z,28.65
2022-09-25T13:47:03.341Z,28.73
2022-09-25T13:49:29.692Z,28.65
2022-09-25T13:51:56.030Z,28.65
2022-09-25T13:54:22.374Z,28.70
2022-09-25T13:56:48.736Z,28.59
2022-09-25T13:59:15.243Z,27.81
2022-09-25T14:01:41.641Z,27.87
2022-09-25T14:04:07.837Z,27.87
2022-09-25T14:06:38.855Z,28.07
2022-09-25T14:09:00.522Z,27.82
2022-09-25T14:11:26.875Z,27.95
2022-09-25T14:13:53.207Z,27.89
2022-09-25T14:16:19.589Z,27.83
2022-09-25T14:18:45.902Z,27.55
2022-09-25T14:21:12.248Z,27.54
2022-09-25T14:23:38.586Z,27.62
2022-09-25T14:26:04.939Z,27.62
2022-09-25T14:28:31.273Z,27.62
2022-09-25T14:30:57.633Z,27.50
2022-09-25T14:33:23.963Z,27.46
2022-09-25T14:35:50.310Z,27.48
2022-09-25T14:38:16.694Z,27.64
2022-09-25T14:40:43.116Z,27.47
2022-09-25T14:43:09.385Z,27.22
2022-09-25T14:45:35.770Z,27.09
2022-09-25T14:48:02.077Z,27.00
2022-09-25T14:50:28.419Z,26.91
2022-09-25T14:52:54.765Z,26.67
2022-09-25T14:55:21.133Z,26.53
2022-09-25T14:57:47.459Z,26.44
2022-09-25T15:00:13.854Z,26.48
2022-09-25T15:02:40.237Z,26.23
2022-09-25T15:05:06.513Z,26.17
2022-09-25T15:07:35.336Z,26.10
2022-09-25T15:10:01.712Z,26.07
2022-09-25T15:12:28.018Z,26.01
2022-09-25T15:14:54.381Z,26.04
2022-09-25T15:17:20.715Z,25.96
2022-09-25T15:19:47.054Z,25.96
2022-09-25T15:22:13.404Z,25.87
2022-09-25T15:24:39.735Z,25.84
2022-09-25T15:27:06.077Z,25.87
2022-09-25T15:29:32.660Z,25.84
2022-09-25T15:31:58.996Z,25.83
2022-09-25T15:34:25.330Z,25.80
2022-09-25T15:36:51.685Z,25.85
2022-09-25T15:39:18.020Z,25.76
2022-09-25T15:41:44.555Z,25.72
2022-09-25T15:44:11.068Z,25.71
2022-09-25T15:46:37.250Z,25.68
2022-09-25T15:49:03.586Z,25.64
2022-09-25T15:51:29.935Z,25.63
2022-09-25T15:53:56.269Z,25.61
2022-09-25T15:56:22.615Z,25.64
2022-09-25T15:58:48.953Z,25.64
2022-09-25T16:01:15.363Z,25.61
2022-09-25T16:03:41.646Z,25.58
2022-09-25T16:06:08.084Z,25.56
2022-09-25T16:08:34.417Z,25.56
2022-09-25T16:11:00.759Z,25.53
2022-09-25T16:13:27.103Z,25.48
2022-09-25T16:15:53.499Z,25.54
2022-09-25T16:18:19.775Z,25.43
2022-09-25T16:20:46.128Z,25.43
2022-09-25T16:23:12.462Z,25.38
2022-09-25T16:25:38.865Z,25.31
2022-09-25T16:28:05.151Z,25.41
2022-09-25T16:30:31.495Z,25.45
2022-09-25T16:32:57.831Z,25.58
2022-09-25T16:35:24.183Z,25.66
2022-09-25T16:37:50.511Z,25.66
2022-09-25T16:40:16.963Z,25.77
2022-09-25T16:42:43.260Z,25.81
2022-09-25T16:45:09.598Z,25.76
2022-09-25T16:47:35.937Z,25.79
2022-09-25T16:50:02.284Z,25.75
2022-09-25T16:52:28.618Z,25.76
2022-09-25T16:54:54.968Z,25.75
2022-09-25T16:57:21.308Z,25.78
2022-09-25T16:59:47.648Z,25.74
2022-09-25T17:02:14.146Z,25.79
2022-09-25T17:04:40.328Z,25.80
2022-09-25T17:07:06.686Z,25.72
2022-09-25T17:09:33.021Z,25.76
2022-09-25T17:11:59.353Z,25.69
2022-09-25T17:14:25.694Z,25.71
2022-09-25T17:16:52.031Z,25.74
2022-09-25T17:19:18.378Z,25.73
2022-09-25T17:21:44.710Z,25.74
2022-09-25T17:24:11.061Z,25.74
2022-09-25T17:26:37.410Z,25.71
2022-09-25T17:29:03.827Z,25.74
2022-09-25T17:31:30.183Z,25.67
2022-09-25T17:33:56.432Z,25.69
2022-09-25T17:36:22.770Z,25.69
2022-09-25T17:38:49.111Z,25.72
2022-09-25T17:41:15.446Z,25.68
2022-09-25T17:43:41.783Z,25.68
2022-09-25T17:46:08.188Z,25.68
2022-09-25T17:48:34.457Z,25.69
2022-09-25T17:51:00.795Z,25.69
2022-09-25T17:53:27.133Z,25.65
2022-09-25T17:55:54.153Z,25.62
2022-09-25T17:58:19.811Z,25.65
2022-09-25T18:00:46.145Z,25.66
2022-09-25T18:03:12.578Z,25.64
2022-09-25T18:05:38.824Z,25.64
2022-09-25T18:08:05.166Z,25.68
2022-09-25T18:10:31.498Z,25.65
2022-09-25T18:12:57.845Z,25.66
2022-09-25T18:15:24.357Z,25.66
2022-09-25T18:17:50.526Z,25.66
2022-09-25T18:20:16.894Z,25.64
2022-09-25T18:22:43.231Z,25.65
2022-09-25T18:25:09.567Z,25.66
2022-09-25T18:27:35.918Z,25.66
2022-09-25T18:30:02.250Z,25.66
2022-09-25T18:32:28.615Z,25.61
2022-09-25T18:34:54.945Z,25.65
2022-09-25T18:37:21.315Z,25.67
2022-09-25T18:39:47.647Z,25.66
2022-09-25T18:42:13.981Z,25.66
2022-09-25T18:44:42.869Z,25.62
2022-09-25T18:47:06.670Z,25.63
2022-09-25T18:49:33.000Z,25.66
2022-09-25T18:51:59.350Z,25.66
2022-09-25T18:54:25.694Z,25.66
2022-09-25T18:56:52.028Z,25.67
2022-09-25T18:59:18.360Z,25.66
2022-09-25T19:01:44.907Z,25.68
2022-09-25T19:04:11.091Z,25.70
2022-09-25T19:06:37.435Z,25.70
2022-09-25T19:09:03.773Z,25.68
2022-09-25T19:11:30.118Z,25.67
2022-09-25T19:13:56.454Z,25.65
2022-09-25T19:16:22.859Z,25.57
2022-09-25T19:18:49.126Z,25.55
2022-09-25T19:21:15.464Z,25.56
2022-09-25T19:23:41.793Z,25.60
2022-09-25T19:26:08.151Z,25.64
2022-09-25T19:28:34.465Z,25.62
2022-09-25T19:31:00.853Z,25.62
2022-09-25T19:33:27.180Z,25.62
2022-09-25T19:35:54.414Z,25.60
2022-09-25T19:38:20.748Z,25.60
2022-09-25T19:40:47.125Z,25.61
2022-09-25T19:43:13.430Z,25.59
2022-09-25T19:45:39.815Z,25.60
2022-09-25T19:48:06.160Z,25.52
2022-09-25T19:50:32.502Z,25.60
2022-09-25T19:52:58.857Z,25.58
2022-09-25T19:55:25.201Z,25.57
2022-09-25T19:57:51.530Z,25.53
2022-09-25T20:00:17.881Z,25.59
2022-09-25T20:02:44.258Z,25.58
2022-09-25T20:05:10.598Z,25.55
2022-09-25T20:07:36.933Z,25.55
2022-09-25T20:10:03.269Z,25.56
2022-09-25T20:12:29.609Z,25.46
2022-09-25T20:14:55.950Z,25.54
2022-09-25T20:17:22.294Z,25.46
2022-09-25T20:19:48.632Z,25.46
2022-09-25T20:22:14.974Z,25.38
2022-09-25T20:24:41.309Z,25.53
2022-09-25T20:27:07.640Z,25.53
2022-09-25T20:29:33.979Z,25.52
2022-09-25T20:32:00.321Z,25.46
2022-09-25T20:34:26.734Z,25.50
2022-09-25T20:36:53.070Z,25.49
2022-09-25T20:39:21.344Z,25.42
2022-09-25T20:41:45.749Z,25.42
2022-09-25T20:44:12.172Z,25.48
2022-09-25T20:46:38.493Z,25.49
2022-09-25T20:49:04.790Z,25.40
2022-09-25T20:51:31.126Z,25.47
2022-09-25T20:53:57.506Z,25.40
2022-09-25T20:56:23.838Z,25.38
2022-09-25T20:58:53.268Z,25.37
2022-09-25T21:01:16.573Z,25.47
2022-09-25T21:03:42.896Z,25.45
2022-09-25T21:06:09.228Z,25.38
2022-09-25T21:08:35.574Z,25.38
2022-09-25T21:11:01.930Z,25.35
2022-09-25T21:13:28.243Z,25.35
2022-09-25T21:15:54.581Z,25.39
2022-09-25T21:18:20.919Z,25.33
2022-09-25T21:20:47.262Z,25.33
2022-09-25T21:23:13.601Z,25.41
2022-09-25T21:25:39.939Z,25.37
2022-09-25T21:28:06.273Z,25.40
2022-09-25T21:30:32.690Z,25.40
2022-09-25T21:32:58.993Z,25.39
2022-09-25T21:35:25.363Z,25.30
2022-09-25T21:37:51.712Z,25.35
2022-09-25T21:40:18.119Z,25.37
2022-09-25T21:42:44.395Z,25.35
2022-09-25T21:45:10.730Z,25.35
2022-09-25T21:47:37.070Z,25.35
2022-09-25T21:50:03.406Z,25.32
2022-09-25T21:52:29.756Z,25.35
2022-09-25T21:54:56.120Z,25.35
2022-09-25T21:57:22.517Z,25.33
2022-09-25T21:59:48.864Z,25.25
2022-09-25T22:02:15.200Z,25.24
2022-09-25T22:04:41.564Z,25.24
2022-09-25T22:07:07.907Z,25.31
2022-09-25T22:12:14.597Z,25.31
2022-09-25T22:14:40.933Z,25.31
2022-09-25T22:17:07.348Z,25.20
2022-09-25T22:19:33.649Z,25.20
2022-09-25T22:22:00.005Z,25.20
2022-09-25T22:24:26.417Z,25.28
2022-09-25T22:26:52.807Z,25.26
2022-09-25T22:29:19.176Z,25.27
2022-09-25T22:31:45.512Z,25.23
2022-09-25T22:34:11.864Z,25.15
2022-09-25T22:36:38.234Z,25.15
2022-09-25T22:39:04.722Z,25.23
2022-09-25T22:41:31.056Z,25.23
2022-09-25T22:44:00.531Z,25.23
2022-09-25T22:46:23.846Z,25.22
2022-09-25T22:48:50.136Z,25.21
2022-09-25T22:51:16.484Z,25.20
2022-09-25T22:53:42.847Z,25.10
2022-09-25T22:56:09.179Z,25.19
2022-09-25T22:58:35.541Z,25.19
2022-09-25T23:01:01.958Z,25.18
2022-09-25T23:03:28.241Z,25.17
2022-09-25T23:05:54.590Z,25.17
2022-09-25T23:08:20.967Z,25.14
2022-09-25T23:11:06.063Z,25.10
2022-09-25T23:13:13.684Z,25.12
2022-09-25T23:15:40.023Z,25.12
2022-09-25T23:18:06.366Z,25.06
2022-09-25T23:20:32.726Z,25.11
2022-09-25T23:22:59.072Z,25.11
2022-09-25T23:25:25.408Z,25.15
2022-09-25T23:27:51.775Z,25.11
2022-09-25T23:30:18.148Z,25.11
2022-09-25T23:32:44.538Z,25.08
2022-09-25T23:35:10.870Z,25.09
2022-09-25T23:37:37.249Z,25.11
2022-09-25T23:40:03.584Z,25.11
2022-09-25T23:42:29.937Z,25.11
2022-09-25T23:44:56.359Z,25.07
2022-09-25T23:47:22.702Z,25.05
2022-09-25T23:49:49.057Z,25.06
2022-09-25T23:52:15.405Z,25.06
2022-09-25T23:54:41.761Z,25.05
2022-09-25T23:57:08.106Z,24.97
2022-09-25T23:59:34.474Z,25.03
